createdAt,value
2023-04-16T00:00:17.379Z,10.90
2023-04-16T00:02:44.678Z,10.90
2023-04-16T00:05:11.890Z,10.90
2023-04-16T00:07:39.496Z,10.90
2023-04-16T00:10:07.319Z,10.90
2023-04-16T00:12:34.360Z,10.70
2023-04-16T00:15:01.320Z,10.70
2023-04-16T00:17:28.320Z,10.60
2023-04-16T00:19:55.380Z,10.50
2023-04-16T00:22:22.424Z,10.50
2023-04-16T00:24:49.379Z,10.50
2023-04-16T00:27:16.369Z,10.40
2023-04-16T00:29:43.284Z,10.40
2023-04-16T00:32:10.374Z,10.30
2023-04-16T00:34:37.276Z,10.30
2023-04-16T00:37:04.184Z,10.20
2023-04-16T00:39:31.192Z,10.20
2023-04-16T00:41:58.121Z,10.20
2023-04-16T00:44:25.232Z,10.10
2023-04-16T00:46:52.252Z,10.10
2023-04-16T00:49:19.582Z,10.10
2023-04-16T00:51:46.843Z,10.10
2023-04-16T00:54:13.748Z,10.10
2023-04-16T00:56:40.705Z,10.10
2023-04-16T00:59:08.161Z,10.20
2023-04-16T01:01:35.231Z,10.00
2023-04-16T01:04:02.367Z,10.10
2023-04-16T01:06:29.373Z,10.00
2023-04-16T01:08:56.268Z,10.10
2023-04-16T01:11:23.161Z,10.00
2023-04-16T01:13:50.314Z,10.10
2023-04-16T01:16:17.383Z,10.00
2023-04-16T01:18:44.406Z,10.10
2023-04-16T01:21:11.300Z,10.00
2023-04-16T01:23:38.155Z,10.10
2023-04-16T01:26:05.062Z,9.90
2023-04-16T01:28:32.008Z,9.90
2023-04-16T01:30:58.915Z,9.90
2023-04-16T01:33:25.853Z,9.80
2023-04-16T01:35:52.920Z,10.00
2023-04-16T01:38:19.846Z,9.80
2023-04-16T01:40:46.814Z,9.80
2023-04-16T01:43:13.696Z,9.80
2023-04-16T01:45:40.700Z,9.70
2023-04-16T01:48:08.491Z,9.80
2023-04-16T01:50:35.504Z,9.60
2023-04-16T01:53:05.367Z,9.60
2023-04-16T01:55:33.862Z,9.50
2023-04-16T01:58:00.887Z,9.60
2023-04-16T02:00:27.831Z,9.60
2023-04-16T02:02:54.984Z,9.50
2023-04-16T02:05:22.479Z,9.60
2023-04-16T02:07:49.345Z,9.50
2023-04-16T02:10:16.582Z,9.40
2023-04-16T02:12:43.572Z,9.40
2023-04-16T02:15:10.864Z,9.40
2023-04-16T02:17:37.960Z,9.40
2023-04-16T02:20:07.918Z,9.30
2023-04-16T02:22:34.924Z,9.30
2023-04-16T02:25:01.995Z,9.50
2023-04-16T02:27:28.912Z,9.40
2023-04-16T02:29:55.795Z,9.30
2023-04-16T02:32:22.801Z,9.40
2023-04-16T02:34:49.691Z,9.30
2023-04-16T02:37:16.667Z,9.30
2023-04-16T02:39:43.931Z,9.40
2023-04-16T02:42:10.833Z,9.30
2023-04-16T02:44:37.735Z,9.40
2023-04-16T02:47:04.733Z,9.20
2023-04-16T02:49:31.622Z,9.20
2023-04-16T02:51:58.544Z,9.20
2023-04-16T02:54:25.527Z,9.40
2023-04-16T02:56:52.380Z,9.30
2023-04-16T02:59:19.227Z,9.30
2023-04-16T03:01:46.437Z,9.40
2023-04-16T03:04:13.376Z,9.40
2023-04-16T03:06:40.390Z,9.40
2023-04-16T03:09:07.693Z,9.40
2023-04-16T03:11:34.684Z,9.40
2023-04-16T03:14:01.571Z,9.50
2023-04-16T03:16:28.426Z,9.30
2023-04-16T03:18:55.360Z,9.30
2023-04-16T03:21:22.221Z,9.20
2023-04-16T03:23:49.186Z,9.20
2023-04-16T03:26:16.388Z,9.20
2023-04-16T03:28:43.282Z,9.20
2023-04-16T03:31:10.190Z,9.30
2023-04-16T03:33:37.091Z,9.30
2023-04-16T03:36:04.150Z,9.10
2023-04-16T03:38:31.152Z,9.10
2023-04-16T03:40:58.093Z,9.10
2023-04-16T03:43:25.129Z,9.10
2023-04-16T03:45:51.995Z,9.10
2023-04-16T03:48:18.856Z,9.10
2023-04-16T03:50:47.487Z,9.20
2023-04-16T03:53:14.850Z,9.10
2023-04-16T03:55:44.702Z,9.00
2023-04-16T03:58:11.621Z,9.30
2023-04-16T04:00:42.367Z,9.20
2023-04-16T04:03:10.431Z,9.20
2023-04-16T04:05:41.464Z,9.20
2023-04-16T04:08:09.066Z,9.20
2023-04-16T04:10:36.441Z,9.30
2023-04-16T04:13:05.045Z,9.20
2023-04-16T04:15:32.286Z,9.20
2023-04-16T04:17:59.394Z,9.20
2023-04-16T04:20:26.410Z,9.20
2023-04-16T04:22:53.301Z,9.20
2023-04-16T04:25:20.263Z,9.10
2023-04-16T04:27:47.274Z,9.10
2023-04-16T04:30:14.129Z,9.10
2023-04-16T04:32:41.127Z,9.00
2023-04-16T04:35:08.402Z,9.00
2023-04-16T04:37:35.274Z,9.00
2023-04-16T04:40:02.346Z,9.00
2023-04-16T04:42:29.389Z,9.00
2023-04-16T04:44:56.536Z,9.00
2023-04-16T04:47:23.492Z,9.00
2023-04-16T04:49:50.448Z,9.10
2023-04-16T04:52:17.398Z,9.10
2023-04-16T04:54:44.295Z,9.20
2023-04-16T04:57:11.166Z,9.30
2023-04-16T04:59:38.102Z,9.30
2023-04-16T05:02:05.623Z,9.30
2023-04-16T05:04:32.884Z,9.40
2023-04-16T05:06:59.909Z,9.40
2023-04-16T05:09:26.858Z,9.30
2023-04-16T05:11:53.889Z,9.30
2023-04-16T05:14:20.861Z,9.50
2023-04-16T05:16:47.753Z,9.30
2023-04-16T05:19:14.813Z,9.30
2023-04-16T05:21:41.687Z,9.40
2023-04-16T05:24:08.594Z,9.30
2023-04-16T05:26:35.519Z,9.30
2023-04-16T05:29:02.353Z,9.30
2023-04-16T05:31:29.178Z,9.30
2023-04-16T05:33:58.942Z,9.20
2023-04-16T05:36:25.913Z,9.20
2023-04-16T05:38:52.785Z,9.20
2023-04-16T05:41:19.753Z,9.10
2023-04-16T05:43:46.576Z,9.10
2023-04-16T05:46:13.502Z,9.10
2023-04-16T05:48:40.363Z,9.10
2023-04-16T05:51:07.244Z,9.20
2023-04-16T05:53:34.168Z,9.20
2023-04-16T05:56:01.044Z,9.10
2023-04-16T05:58:27.985Z,9.30
2023-04-16T06:00:55.070Z,9.10
2023-04-16T06:03:22.118Z,9.10
2023-04-16T06:05:49.233Z,9.10
2023-04-16T06:08:16.266Z,9.10
2023-04-16T06:10:43.335Z,9.20
2023-04-16T06:13:10.504Z,9.20
2023-04-16T06:15:37.747Z,9.40
2023-04-16T06:18:05.462Z,9.30
2023-04-16T06:20:32.442Z,9.40
2023-04-16T06:22:59.404Z,9.40
2023-04-16T06:25:26.302Z,9.40
2023-04-16T06:27:53.277Z,9.60
2023-04-16T06:30:20.284Z,9.50
2023-04-16T06:32:48.134Z,9.50
2023-04-16T06:35:15.343Z,9.50
2023-04-16T06:37:42.332Z,9.50
2023-04-16T06:40:09.805Z,9.50
2023-04-16T06:42:36.694Z,9.50
2023-04-16T06:45:03.921Z,9.50
2023-04-16T06:47:30.988Z,9.50
2023-04-16T06:49:58.057Z,9.50
2023-04-16T06:52:25.016Z,9.50
2023-04-16T06:54:51.989Z,9.50
2023-04-16T06:57:18.883Z,9.50
2023-04-16T06:59:45.856Z,9.50
2023-04-16T07:02:12.986Z,9.50
2023-04-16T07:04:39.942Z,9.50
2023-04-16T07:07:06.984Z,9.50
2023-04-16T07:09:33.944Z,9.70
2023-04-16T07:12:01.035Z,9.60
2023-04-16T07:14:27.952Z,9.60
2023-04-16T07:16:55.102Z,9.50
2023-04-16T07:19:22.274Z,9.60
2023-04-16T07:21:49.527Z,9.60
2023-04-16T07:24:16.568Z,9.60
2023-04-16T07:26:43.506Z,9.60
2023-04-16T07:29:10.607Z,9.60
2023-04-16T07:31:38.331Z,9.60
2023-04-16T07:34:05.417Z,9.70
2023-04-16T07:36:32.477Z,9.70
2023-04-16T07:38:59.438Z,9.70
2023-04-16T07:41:26.370Z,9.60
2023-04-16T07:43:53.303Z,9.60
2023-04-16T07:46:20.277Z,9.50
2023-04-16T07:48:47.245Z,9.50
2023-04-16T07:51:14.572Z,9.60
2023-04-16T07:53:42.096Z,9.50
2023-04-16T07:56:09.325Z,9.60
2023-04-16T07:58:36.376Z,9.80
2023-04-16T08:01:04.232Z,9.70
2023-04-16T08:03:31.774Z,9.70
2023-04-16T08:05:59.057Z,9.80
2023-04-16T08:08:26.892Z,10.00
2023-04-16T08:10:56.093Z,10.00
2023-04-16T08:13:24.188Z,10.10
2023-04-16T08:15:51.427Z,10.30
2023-04-16T08:18:19.408Z,10.20
2023-04-16T08:20:46.565Z,10.10
2023-04-16T08:23:13.712Z,10.00
2023-04-16T08:25:40.990Z,10.10
2023-04-16T08:28:08.124Z,10.00
2023-04-16T08:30:35.696Z,9.90
2023-04-16T08:33:03.005Z,9.90
2023-04-16T08:35:29.945Z,9.80
2023-04-16T08:37:58.074Z,9.80
2023-04-16T08:40:28.845Z,9.70
2023-04-16T08:42:59.518Z,9.70
2023-04-16T08:45:28.097Z,9.70
2023-04-16T08:47:55.175Z,9.70
2023-04-16T08:50:26.795Z,9.70
2023-04-16T08:53:00.955Z,9.70
2023-04-16T08:55:42.794Z,9.80
2023-04-16T08:58:16.313Z,9.80
2023-04-16T09:00:44.276Z,9.80
2023-04-16T09:03:11.654Z,9.80
2023-04-16T09:05:39.418Z,9.80
2023-04-16T09:08:07.208Z,9.70
2023-04-16T09:10:34.985Z,9.70
2023-04-16T09:13:02.078Z,9.80
2023-04-16T12:00:02.531Z,11.30
2023-04-16T12:05:35.195Z,11.60
2023-04-16T12:08:04.219Z,11.80
2023-04-16T12:10:36.564Z,11.90
2023-04-16T12:13:30.488Z,12.10
2023-04-16T12:15:57.419Z,12.30
2023-04-16T12:18:27.109Z,12.70
2023-04-16T12:20:54.237Z,13.00
2023-04-16T12:23:32.910Z,13.30
2023-04-16T12:26:10.422Z,13.50
2023-04-16T12:28:41.645Z,13.90
2023-04-16T12:31:10.636Z,14.40
2023-04-16T12:33:37.598Z,14.60
2023-04-16T12:36:20.345Z,14.20
2023-04-16T12:38:47.244Z,14.60
2023-04-16T12:41:14.114Z,14.90
2023-04-16T12:43:41.057Z,15.10
2023-04-16T12:46:08.081Z,15.40
2023-04-16T12:48:35.154Z,15.40
2023-04-16T12:51:02.138Z,15.40
2023-04-16T12:53:29.159Z,15.50
2023-04-16T12:55:55.982Z,15.50
2023-04-16T12:58:22.822Z,15.40
2023-04-16T13:00:49.736Z,15.20
2023-04-16T13:03:16.758Z,15.00
2023-04-16T13:05:43.834Z,14.70
2023-04-16T13:08:10.717Z,14.50
2023-04-16T13:10:37.601Z,14.50
2023-04-16T13:13:04.515Z,14.40
2023-04-16T13:15:31.403Z,14.30
2023-04-16T13:18:01.306Z,14.00
2023-04-16T13:20:28.273Z,14.00
2023-04-16T13:22:55.309Z,14.10
2023-04-16T13:25:22.799Z,14.10
2023-04-16T13:27:49.738Z,14.20
2023-04-16T13:30:16.820Z,14.40
2023-04-16T13:32:44.071Z,14.40
2023-04-16T13:35:11.845Z,14.40
2023-04-16T13:37:39.072Z,14.70
2023-04-16T13:40:06.846Z,15.00
2023-04-16T13:42:33.755Z,15.20
2023-04-16T13:45:01.242Z,15.40
2023-04-16T13:47:28.895Z,15.40
2023-04-16T13:49:56.060Z,15.40
2023-04-16T13:52:23.133Z,15.60
2023-04-16T13:54:50.221Z,15.70
2023-04-16T13:57:18.091Z,15.90
2023-04-16T13:59:44.981Z,16.10
2023-04-16T14:02:12.973Z,16.20
2023-04-16T14:04:39.950Z,16.20
2023-04-16T14:07:06.822Z,16.20
2023-04-16T14:09:33.783Z,16.20
2023-04-16T14:12:00.777Z,16.30
2023-04-16T14:14:27.821Z,16.30
2023-04-16T14:16:55.016Z,16.20
2023-04-16T14:19:22.042Z,16.20
2023-04-16T14:21:52.235Z,16.20
2023-04-16T14:24:19.294Z,16.30
2023-04-16T14:26:46.218Z,16.40
2023-04-16T14:29:13.182Z,16.50
2023-04-16T14:31:40.035Z,16.50
2023-04-16T14:34:06.981Z,16.60
2023-04-16T14:36:33.925Z,16.70
2023-04-16T14:39:01.154Z,16.70
2023-04-16T14:41:28.021Z,16.70
2023-04-16T14:43:54.893Z,16.60
2023-04-16T14:46:21.869Z,16.50
2023-04-16T14:48:48.836Z,16.40
2023-04-16T14:51:15.897Z,16.10
2023-04-16T14:53:42.759Z,16.00
2023-04-16T14:56:11.152Z,15.80
2023-04-16T14:58:39.455Z,15.60
2023-04-16T15:01:06.664Z,15.50
2023-04-16T15:03:33.822Z,15.50
2023-04-16T15:06:00.854Z,15.30
2023-04-16T15:08:27.726Z,15.10
2023-04-16T15:10:54.554Z,15.00
2023-04-16T15:13:21.383Z,14.90
2023-04-16T15:15:48.383Z,14.80
2023-04-16T15:18:16.324Z,14.70
2023-04-16T15:20:43.242Z,14.60
2023-04-16T15:23:10.122Z,14.40
2023-04-16T15:25:36.990Z,14.40
2023-04-16T15:28:03.909Z,14.30
2023-04-16T15:30:31.400Z,14.30
2023-04-16T15:32:58.325Z,14.30
2023-04-16T15:35:26.069Z,14.40
2023-04-16T15:37:52.941Z,14.40
2023-04-16T15:40:20.560Z,14.40
2023-04-16T15:42:48.172Z,14.50
2023-04-16T15:45:15.404Z,14.40
2023-04-16T15:47:48.324Z,14.40
2023-04-16T15:50:15.626Z,14.50
2023-04-16T15:52:42.668Z,14.50
2023-04-16T15:55:10.442Z,14.50
2023-04-16T15:57:39.966Z,14.60
2023-04-16T16:00:19.069Z,14.60
2023-04-16T16:02:47.249Z,14.60
2023-04-16T16:05:15.491Z,14.60
2023-04-16T16:07:43.422Z,14.60
2023-04-16T16:10:11.226Z,14.40
2023-04-16T16:12:38.253Z,14.30
2023-04-16T16:15:06.405Z,14.40
2023-04-16T16:17:33.596Z,14.10
2023-04-16T16:20:00.564Z,14.00
2023-04-16T16:22:27.448Z,13.80
2023-04-16T16:24:55.956Z,13.70
2023-04-16T16:27:22.945Z,13.80
2023-04-16T16:29:49.987Z,13.50
2023-04-16T16:32:16.859Z,13.40
2023-04-16T16:34:43.691Z,13.30
2023-04-16T16:37:10.505Z,13.30
2023-04-16T16:39:38.649Z,13.30
2023-04-16T16:42:05.998Z,13.20
2023-04-16T16:44:32.845Z,13.20
2023-04-16T16:46:59.800Z,13.20
2023-04-16T16:49:26.693Z,13.40
2023-04-16T16:51:53.519Z,13.30
2023-04-16T16:54:20.341Z,13.40
2023-04-16T16:56:47.190Z,13.10
2023-04-16T16:59:14.057Z,13.10
2023-04-16T17:01:41.111Z,13.00
2023-04-16T17:04:08.138Z,13.10
2023-04-16T17:06:35.148Z,13.00
2023-04-16T17:09:02.198Z,13.30
2023-04-16T17:11:29.342Z,13.10
2023-04-16T17:13:56.217Z,13.10
2023-04-16T17:16:23.956Z,13.20
2023-04-16T17:18:50.937Z,13.20
2023-04-16T17:21:17.905Z,13.20
2023-04-16T17:23:44.830Z,13.20
2023-04-16T17:26:11.686Z,13.10
2023-04-16T17:28:38.641Z,13.10
2023-04-16T17:31:08.281Z,13.00
2023-04-16T17:33:35.458Z,13.00
2023-04-16T17:36:02.413Z,13.10
2023-04-16T17:38:30.284Z,12.80
2023-04-16T17:40:58.005Z,12.60
2023-04-16T17:43:24.963Z,12.50
2023-04-16T17:45:51.880Z,12.40
2023-04-16T17:48:19.548Z,12.40
2023-04-16T17:50:53.951Z,12.30
2023-04-16T17:53:28.161Z,12.30
2023-04-16T17:55:56.937Z,12.30
2023-04-16T17:58:26.221Z,12.30
2023-04-16T18:00:53.137Z,12.20
2023-04-16T18:03:22.100Z,12.40
2023-04-16T18:05:49.418Z,12.20
2023-04-16T18:08:16.307Z,12.20
2023-04-16T18:10:43.685Z,12.20
2023-04-16T18:13:10.619Z,12.30
2023-04-16T18:15:38.272Z,12.20
2023-04-16T18:18:05.613Z,12.20
2023-04-16T18:20:32.735Z,12.20
2023-04-16T18:22:59.815Z,12.30
2023-04-16T18:25:34.591Z,12.20
2023-04-16T18:28:03.643Z,12.20
2023-04-16T18:30:30.610Z,12.30
2023-04-16T18:35:27.457Z,12.20
2023-04-16T18:37:54.312Z,12.10
2023-04-16T18:40:21.215Z,12.10
2023-04-16T18:42:48.159Z,12.30
2023-04-16T18:45:21.166Z,12.10
2023-04-16T18:47:50.286Z,12.10
2023-04-16T18:50:17.368Z,12.10
2023-04-16T18:52:44.392Z,12.20
2023-04-16T18:55:11.269Z,12.20
2023-04-16T18:57:38.065Z,12.40
2023-04-16T19:00:10.986Z,12.30
2023-04-16T19:02:41.289Z,12.10
2023-04-16T19:05:09.463Z,12.10
2023-04-16T19:07:37.441Z,12.10
2023-04-16T19:10:05.260Z,12.30
2023-04-16T19:12:32.511Z,12.00
2023-04-16T19:14:59.548Z,12.00
2023-04-16T19:17:26.682Z,12.00
2023-04-16T19:19:53.629Z,12.20
2023-04-16T19:22:20.568Z,12.30
2023-04-16T19:24:47.483Z,12.00
2023-04-16T19:27:14.473Z,12.00
2023-04-16T19:29:43.366Z,12.20
2023-04-16T19:32:10.660Z,11.90
2023-04-16T19:34:38.454Z,12.00
2023-04-16T19:37:05.407Z,11.80
2023-04-16T19:39:33.099Z,12.00
2023-04-16T19:42:00.002Z,11.70
2023-04-16T19:44:28.113Z,11.70
2023-04-16T19:46:55.108Z,11.60
2023-04-16T19:49:22.023Z,11.70
2023-04-16T19:51:48.905Z,11.80
2023-04-16T19:54:15.784Z,11.80
2023-04-16T19:56:42.931Z,11.70
2023-04-16T19:59:12.659Z,11.70
2023-04-16T20:01:39.755Z,11.80
2023-04-16T20:04:07.140Z,11.70
2023-04-16T20:06:34.106Z,11.70
2023-04-16T20:09:01.078Z,11.70
2023-04-16T20:11:27.935Z,12.00
2023-04-16T20:13:54.842Z,12.00
2023-04-16T20:16:23.856Z,11.70
2023-04-16T20:18:54.336Z,11.60
2023-04-16T20:21:21.633Z,11.60
2023-04-16T20:23:48.618Z,11.60
2023-04-16T20:26:18.350Z,11.70
2023-04-16T20:28:45.626Z,11.50
2023-04-16T20:31:12.955Z,11.50
2023-04-16T20:33:39.951Z,11.60
2023-04-16T20:36:07.350Z,11.40
2023-04-16T20:38:35.585Z,11.40
2023-04-16T20:41:14.429Z,11.40
2023-04-16T20:43:42.086Z,11.30
2023-04-16T20:46:10.644Z,11.30
2023-04-16T20:48:41.393Z,11.30
2023-04-16T20:51:11.431Z,11.20
2023-04-16T20:53:38.356Z,11.20
2023-04-16T20:56:06.804Z,11.10
2023-04-16T20:58:33.719Z,11.10
2023-04-16T21:01:00.881Z,11.10
2023-04-16T21:03:27.879Z,11.10
2023-04-16T21:05:55.574Z,11.10
2023-04-16T21:08:23.509Z,11.10
2023-04-16T21:10:51.199Z,11.10
2023-04-16T21:13:18.620Z,11.00
2023-04-16T21:15:46.078Z,11.00
2023-04-16T21:18:13.204Z,11.10
2023-04-16T21:20:40.101Z,11.10
2023-04-16T21:23:07.112Z,11.10
2023-04-16T21:25:34.060Z,11.10
2023-04-16T21:28:01.386Z,11.40
2023-04-16T21:30:28.318Z,11.10
2023-04-16T21:32:55.481Z,11.20
2023-04-16T21:35:22.477Z,11.50
2023-04-16T21:37:49.482Z,11.30
2023-04-16T21:40:16.753Z,11.10
2023-04-16T21:42:44.619Z,11.40
2023-04-16T21:45:12.113Z,11.20
2023-04-16T21:47:39.133Z,11.20
2023-04-16T21:50:06.654Z,11.20
2023-04-16T21:52:33.595Z,11.20
2023-04-16T21:55:01.026Z,11.20
2023-04-16T21:57:27.863Z,11.40
2023-04-16T21:59:54.728Z,11.20
2023-04-16T22:02:21.861Z,11.20
2023-04-16T22:04:49.071Z,11.30
2023-04-16T22:07:16.906Z,11.20
2023-04-16T22:09:44.026Z,11.20
2023-04-16T22:12:10.971Z,11.20
2023-04-16T22:14:44.030Z,11.20
2023-04-16T22:17:14.947Z,11.20
2023-04-16T22:19:42.347Z,11.20
2023-04-16T22:22:09.195Z,11.20
2023-04-16T22:24:36.212Z,11.10
2023-04-16T22:27:03.115Z,11.20
2023-04-16T22:29:30.071Z,11.10
2023-04-16T22:31:56.987Z,11.10
2023-04-16T22:34:23.888Z,11.10
2023-04-16T22:36:50.755Z,11.00
2023-04-16T22:39:17.614Z,11.00
2023-04-16T22:41:44.457Z,11.00
2023-04-16T22:44:11.329Z,11.00
2023-04-16T22:46:38.265Z,11.00
2023-04-16T22:49:05.219Z,11.00
2023-04-16T22:51:32.337Z,11.10
2023-04-16T22:53:59.173Z,11.00
2023-04-16T22:56:28.776Z,10.90
2023-04-16T22:58:55.855Z,10.80
2023-04-16T23:01:23.435Z,10.90
2023-04-16T23:03:50.408Z,10.70
2023-04-16T23:06:17.425Z,10.70
2023-04-16T23:08:44.425Z,10.70
2023-04-16T23:11:11.371Z,10.60
2023-04-16T23:13:38.350Z,10.80
2023-04-16T23:16:05.680Z,10.60
2023-04-16T23:18:32.626Z,10.50
2023-04-16T23:20:59.505Z,10.60
2023-04-16T23:23:26.395Z,10.50
2023-04-16T23:25:53.997Z,10.50
2023-04-16T23:28:21.919Z,10.50
2023-04-16T23:30:52.860Z,10.40
2023-04-16T23:33:19.882Z,10.40
2023-04-16T23:35:47.424Z,10.40
2023-04-16T23:38:14.378Z,10.50
2023-04-16T23:40:41.325Z,10.30
2023-04-16T23:43:08.152Z,10.30
2023-04-16T23:45:35.049Z,10.30
2023-04-16T23:48:02.170Z,10.40
2023-04-16T23:50:29.080Z,10.20
2023-04-16T23:52:55.936Z,10.20
2023-04-16T23:55:22.956Z,10.10
2023-04-16T23:57:49.958Z,10.10
